sensor_id;sensor_type;location;lat;lon;timestamp;P1;durP1;ratioP1;P2;durP2;ratioP2
14799;SDS011;7491;57.750;11.970;2022-07-24T00:00:43;7.78;;;2.28;;
14799;SDS011;7491;57.750;11.970;2022-07-24T00:03:09;6.03;;;1.80;;
14799;SDS011;7491;57.750;11.970;2022-07-24T00:05:37;6.70;;;1.70;;
14799;SDS011;7491;57.750;11.970;2022-07-24T00:08:04;8.25;;;1.85;;
14799;SDS011;7491;57.750;11.970;2022-07-24T00:10:31;10.15;;;2.38;;
14799;SDS011;7491;57.750;11.970;2022-07-24T00:12:59;4.53;;;2.00;;
14799;SDS011;7491;57.750;11.970;2022-07-24T00:15:25;5.40;;;2.33;;
14799;SDS011;7491;57.750;11.970;2022-07-24T00:17:52;4.95;;;1.98;;
14799;SDS011;7491;57.750;11.970;2022-07-24T00:20:18;5.43;;;2.47;;
14799;SDS011;7491;57.750;11.970;2022-07-24T00:22:47;6.32;;;2.47;;
14799;SDS011;7491;57.750;11.970;2022-07-24T00:25:14;8.48;;;2.25;;
14799;SDS011;7491;57.750;11.970;2022-07-24T00:27:42;7.82;;;2.35;;
14799;SDS011;7491;57.750;11.970;2022-07-24T00:30:11;5.80;;;2.05;;
14799;SDS011;7491;57.750;11.970;2022-07-24T00:32:38;8.98;;;2.13;;
14799;SDS011;7491;57.750;11.970;2022-07-24T00:35:05;4.75;;;1.60;;
14799;SDS011;7491;57.750;11.970;2022-07-24T00:37:32;7.97;;;2.35;;
14799;SDS011;7491;57.750;11.970;2022-07-24T00:40:00;5.50;;;1.90;;
14799;SDS011;7491;57.750;11.970;2022-07-24T00:42:27;7.45;;;2.30;;
14799;SDS011;7491;57.750;11.970;2022-07-24T00:44:54;3.78;;;1.85;;
14799;SDS011;7491;57.750;11.970;2022-07-24T00:47:20;5.38;;;2.30;;
14799;SDS011;7491;57.750;11.970;2022-07-24T00:49:47;6.65;;;1.95;;
14799;SDS011;7491;57.750;11.970;2022-07-24T00:52:14;6.00;;;2.20;;
14799;SDS011;7491;57.750;11.970;2022-07-24T00:54:40;5.97;;;1.90;;
14799;SDS011;7491;57.750;11.970;2022-07-24T00:57:08;5.63;;;1.80;;
14799;SDS011;7491;57.750;11.970;2022-07-24T00:59:35;6.47;;;2.28;;
14799;SDS011;7491;57.750;11.970;2022-07-24T01:02:02;5.75;;;2.38;;
14799;SDS011;7491;57.750;11.970;2022-07-24T01:04:28;3.95;;;2.20;;
14799;SDS011;7491;57.750;11.970;2022-07-24T01:06:55;5.10;;;2.58;;
14799;SDS011;7491;57.750;11.970;2022-07-24T01:09:22;3.45;;;1.75;;
14799;SDS011;7491;57.750;11.970;2022-07-24T01:11:49;7.93;;;2.22;;
14799;SDS011;7491;57.750;11.970;2022-07-24T01:14:18;4.45;;;1.70;;
14799;SDS011;7491;57.750;11.970;2022-07-24T01:16:45;5.32;;;1.90;;
14799;SDS011;7491;57.750;11.970;2022-07-24T01:19:12;7.55;;;1.90;;
14799;SDS011;7491;57.750;11.970;2022-07-24T01:21:41;5.43;;;2.45;;
14799;SDS011;7491;57.750;11.970;2022-07-24T01:24:11;6.57;;;2.00;;
14799;SDS011;7491;57.750;11.970;2022-07-24T01:26:38;5.40;;;1.90;;
14799;SDS011;7491;57.750;11.970;2022-07-24T01:29:04;5.25;;;2.22;;
14799;SDS011;7491;57.750;11.970;2022-07-24T01:31:31;3.53;;;1.80;;
14799;SDS011;7491;57.750;11.970;2022-07-24T01:33:58;5.60;;;1.95;;
14799;SDS011;7491;57.750;11.970;2022-07-24T01:36:24;4.05;;;1.70;;
14799;SDS011;7491;57.750;11.970;2022-07-24T01:38:52;5.43;;;2.03;;
14799;SDS011;7491;57.750;11.970;2022-07-24T01:41:19;5.28;;;2.10;;
14799;SDS011;7491;57.750;11.970;2022-07-24T01:43:46;3.72;;;1.92;;
14799;SDS011;7491;57.750;11.970;2022-07-24T01:46:12;4.50;;;1.52;;
14799;SDS011;7491;57.750;11.970;2022-07-24T01:48:39;3.20;;;1.63;;
14799;SDS011;7491;57.750;11.970;2022-07-24T01:51:07;4.63;;;1.83;;
14799;SDS011;7491;57.750;11.970;2022-07-24T01:53:33;5.97;;;1.55;;
14799;SDS011;7491;57.750;11.970;2022-07-24T01:56:02;8.18;;;1.85;;
14799;SDS011;7491;57.750;11.970;2022-07-24T01:58:28;2.45;;;2.08;;
14799;SDS011;7491;57.750;11.970;2022-07-24T02:00:55;4.53;;;2.13;;
14799;SDS011;7491;57.750;11.970;2022-07-24T02:03:22;8.00;;;1.90;;
14799;SDS011;7491;57.750;11.970;2022-07-24T02:05:48;3.13;;;1.55;;
14799;SDS011;7491;57.750;11.970;2022-07-24T02:08:15;3.78;;;1.80;;
14799;SDS011;7491;57.750;11.970;2022-07-24T02:10:42;8.55;;;1.88;;
14799;SDS011;7491;57.750;11.970;2022-07-24T02:13:10;6.47;;;1.98;;
14799;SDS011;7491;57.750;11.970;2022-07-24T02:15:36;6.32;;;1.92;;
14799;SDS011;7491;57.750;11.970;2022-07-24T02:18:03;3.55;;;1.80;;
14799;SDS011;7491;57.750;11.970;2022-07-24T02:20:30;7.07;;;2.22;;
14799;SDS011;7491;57.750;11.970;2022-07-24T02:22:57;4.40;;;1.50;;
14799;SDS011;7491;57.750;11.970;2022-07-24T02:25:23;6.63;;;1.42;;
14799;SDS011;7491;57.750;11.970;2022-07-24T02:27:50;3.45;;;1.40;;
14799;SDS011;7491;57.750;11.970;2022-07-24T02:30:19;4.30;;;1.70;;
14799;SDS011;7491;57.750;11.970;2022-07-24T02:32:47;5.35;;;1.70;;
14799;SDS011;7491;57.750;11.970;2022-07-24T02:35:14;6.03;;;1.70;;
14799;SDS011;7491;57.750;11.970;2022-07-24T02:37:41;5.43;;;1.90;;
14799;SDS011;7491;57.750;11.970;2022-07-24T02:40:11;6.65;;;1.75;;
14799;SDS011;7491;57.750;11.970;2022-07-24T02:42:39;8.02;;;2.05;;
14799;SDS011;7491;57.750;11.970;2022-07-24T02:45:07;3.08;;;1.58;;
14799;SDS011;7491;57.750;11.970;2022-07-24T02:47:35;4.95;;;1.75;;
14799;SDS011;7491;57.750;11.970;2022-07-24T02:50:11;5.90;;;1.65;;
14799;SDS011;7491;57.750;11.970;2022-07-24T02:52:38;6.80;;;1.70;;
14799;SDS011;7491;57.750;11.970;2022-07-24T02:55:05;3.25;;;1.77;;
14799;SDS011;7491;57.750;11.970;2022-07-24T02:57:32;6.40;;;1.90;;
14799;SDS011;7491;57.750;11.970;2022-07-24T02:59:59;8.57;;;2.00;;
14799;SDS011;7491;57.750;11.970;2022-07-24T03:02:26;4.20;;;1.60;;
14799;SDS011;7491;57.750;11.970;2022-07-24T03:04:53;5.50;;;1.90;;
14799;SDS011;7491;57.750;11.970;2022-07-24T03:07:20;4.35;;;1.60;;
14799;SDS011;7491;57.750;11.970;2022-07-24T03:09:47;5.47;;;1.60;;
14799;SDS011;7491;57.750;11.970;2022-07-24T03:12:13;6.22;;;2.00;;
14799;SDS011;7491;57.750;11.970;2022-07-24T03:14:40;2.10;;;1.38;;
14799;SDS011;7491;57.750;11.970;2022-07-24T03:17:07;2.83;;;1.73;;
14799;SDS011;7491;57.750;11.970;2022-07-24T03:19:33;4.05;;;1.63;;
14799;SDS011;7491;57.750;11.970;2022-07-24T03:22:01;7.28;;;1.73;;
14799;SDS011;7491;57.750;11.970;2022-07-24T03:24:28;6.40;;;1.60;;
14799;SDS011;7491;57.750;11.970;2022-07-24T03:26:55;8.50;;;2.00;;
14799;SDS011;7491;57.750;11.970;2022-07-24T03:29:22;3.25;;;1.55;;
14799;SDS011;7491;57.750;11.970;2022-07-24T03:31:48;3.55;;;1.70;;
14799;SDS011;7491;57.750;11.970;2022-07-24T03:34:15;5.13;;;1.80;;
14799;SDS011;7491;57.750;11.970;2022-07-24T03:36:42;4.60;;;1.80;;
14799;SDS011;7491;57.750;11.970;2022-07-24T03:39:10;3.15;;;1.80;;
14799;SDS011;7491;57.750;11.970;2022-07-24T03:41:36;6.13;;;1.90;;
14799;SDS011;7491;57.750;11.970;2022-07-24T03:44:03;4.18;;;1.90;;
14799;SDS011;7491;57.750;11.970;2022-07-24T03:46:30;4.70;;;1.83;;
14799;SDS011;7491;57.750;11.970;2022-07-24T03:48:57;4.07;;;1.80;;
14799;SDS011;7491;57.750;11.970;2022-07-24T03:51:24;3.13;;;1.63;;
14799;SDS011;7491;57.750;11.970;2022-07-24T03:53:51;4.80;;;1.63;;
14799;SDS011;7491;57.750;11.970;2022-07-24T03:56:21;4.20;;;1.77;;
14799;SDS011;7491;57.750;11.970;2022-07-24T03:58:48;6.28;;;2.00;;
14799;SDS011;7491;57.750;11.970;2022-07-24T04:01:15;4.80;;;1.92;;
14799;SDS011;7491;57.750;11.970;2022-07-24T04:03:41;4.13;;;1.70;;
14799;SDS011;7491;57.750;11.970;2022-07-24T04:06:08;4.07;;;1.67;;
14799;SDS011;7491;57.750;11.970;2022-07-24T04:08:35;3.92;;;1.60;;
14799;SDS011;7491;57.750;11.970;2022-07-24T04:11:01;6.93;;;2.22;;
14799;SDS011;7491;57.750;11.970;2022-07-24T04:13:30;3.58;;;1.60;;
14799;SDS011;7491;57.750;11.970;2022-07-24T04:15:57;4.68;;;1.63;;
14799;SDS011;7491;57.750;11.970;2022-07-24T04:18:24;4.82;;;1.50;;
14799;SDS011;7491;57.750;11.970;2022-07-24T04:20:51;3.80;;;1.70;;
14799;SDS011;7491;57.750;11.970;2022-07-24T04:23:18;4.78;;;1.80;;
14799;SDS011;7491;57.750;11.970;2022-07-24T04:25:45;3.83;;;1.63;;
14799;SDS011;7491;57.750;11.970;2022-07-24T04:28:12;7.22;;;1.52;;
14799;SDS011;7491;57.750;11.970;2022-07-24T04:30:40;3.80;;;1.40;;
14799;SDS011;7491;57.750;11.970;2022-07-24T04:33:07;6.03;;;1.95;;
14799;SDS011;7491;57.750;11.970;2022-07-24T04:35:33;5.70;;;1.80;;
14799;SDS011;7491;57.750;11.970;2022-07-24T04:38:00;4.47;;;1.88;;
14799;SDS011;7491;57.750;11.970;2022-07-24T04:40:27;3.55;;;1.55;;
14799;SDS011;7491;57.750;11.970;2022-07-24T04:42:54;3.72;;;1.70;;
14799;SDS011;7491;57.750;11.970;2022-07-24T04:45:20;4.57;;;1.50;;
14799;SDS011;7491;57.750;11.970;2022-07-24T04:47:48;6.43;;;1.50;;
14799;SDS011;7491;57.750;11.970;2022-07-24T04:50:15;4.78;;;1.63;;
14799;SDS011;7491;57.750;11.970;2022-07-24T04:52:42;6.00;;;1.50;;
14799;SDS011;7491;57.750;11.970;2022-07-24T04:55:09;5.53;;;1.60;;
14799;SDS011;7491;57.750;11.970;2022-07-24T04:57:37;4.55;;;1.77;;
14799;SDS011;7491;57.750;11.970;2022-07-24T05:00:05;5.20;;;1.55;;
14799;SDS011;7491;57.750;11.970;2022-07-24T05:02:36;3.75;;;1.70;;
14799;SDS011;7491;57.750;11.970;2022-07-24T05:05:05;1.75;;;1.25;;
14799;SDS011;7491;57.750;11.970;2022-07-24T05:07:32;6.30;;;1.80;;
14799;SDS011;7491;57.750;11.970;2022-07-24T05:10:00;6.60;;;1.60;;
14799;SDS011;7491;57.750;11.970;2022-07-24T05:12:26;3.35;;;1.40;;
14799;SDS011;7491;57.750;11.970;2022-07-24T05:14:53;4.65;;;1.35;;
14799;SDS011;7491;57.750;11.970;2022-07-24T05:17:20;2.38;;;1.40;;
14799;SDS011;7491;57.750;11.970;2022-07-24T05:19:47;4.70;;;1.70;;
14799;SDS011;7491;57.750;11.970;2022-07-24T05:22:15;6.38;;;2.13;;
14799;SDS011;7491;57.750;11.970;2022-07-24T05:24:42;3.35;;;1.33;;
14799;SDS011;7491;57.750;11.970;2022-07-24T05:27:09;6.82;;;1.60;;
14799;SDS011;7491;57.750;11.970;2022-07-24T05:29:36;3.50;;;2.10;;
14799;SDS011;7491;57.750;11.970;2022-07-24T05:32:03;5.90;;;1.40;;
14799;SDS011;7491;57.750;11.970;2022-07-24T05:34:30;4.82;;;1.60;;
14799;SDS011;7491;57.750;11.970;2022-07-24T05:36:56;5.38;;;1.75;;
14799;SDS011;7491;57.750;11.970;2022-07-24T05:39:24;3.55;;;1.40;;
14799;SDS011;7491;57.750;11.970;2022-07-24T05:41:51;5.28;;;1.70;;
14799;SDS011;7491;57.750;11.970;2022-07-24T05:44:18;3.65;;;1.70;;
14799;SDS011;7491;57.750;11.970;2022-07-24T05:46:44;4.28;;;1.58;;
14799;SDS011;7491;57.750;11.970;2022-07-24T05:49:11;5.70;;;1.45;;
14799;SDS011;7491;57.750;11.970;2022-07-24T05:51:38;4.68;;;1.50;;
14799;SDS011;7491;57.750;11.970;2022-07-24T05:54:05;4.00;;;1.63;;
14799;SDS011;7491;57.750;11.970;2022-07-24T05:56:33;6.43;;;1.88;;
14799;SDS011;7491;57.750;11.970;2022-07-24T05:58:59;5.93;;;1.70;;
14799;SDS011;7491;57.750;11.970;2022-07-24T06:01:26;2.60;;;1.25;;
14799;SDS011;7491;57.750;11.970;2022-07-24T06:03:52;4.22;;;1.45;;
14799;SDS011;7491;57.750;11.970;2022-07-24T06:06:19;4.55;;;1.65;;
14799;SDS011;7491;57.750;11.970;2022-07-24T06:08:45;5.70;;;1.80;;
14799;SDS011;7491;57.750;11.970;2022-07-24T06:11:12;2.67;;;1.50;;
14799;SDS011;7491;57.750;11.970;2022-07-24T06:13:40;2.88;;;1.48;;
14799;SDS011;7491;57.750;11.970;2022-07-24T06:16:07;4.72;;;1.30;;
14799;SDS011;7491;57.750;11.970;2022-07-24T06:18:33;6.78;;;1.50;;
14799;SDS011;7491;57.750;11.970;2022-07-24T06:21:00;5.05;;;1.38;;
14799;SDS011;7491;57.750;11.970;2022-07-24T06:23:27;2.65;;;1.30;;
14799;SDS011;7491;57.750;11.970;2022-07-24T06:25:53;4.47;;;1.63;;
14799;SDS011;7491;57.750;11.970;2022-07-24T06:28:20;4.53;;;1.60;;
14799;SDS011;7491;57.750;11.970;2022-07-24T06:30:48;3.50;;;1.58;;
14799;SDS011;7491;57.750;11.970;2022-07-24T06:33:14;4.55;;;1.38;;
14799;SDS011;7491;57.750;11.970;2022-07-24T06:35:41;6.30;;;1.30;;
14799;SDS011;7491;57.750;11.970;2022-07-24T06:38:08;5.10;;;1.30;;
14799;SDS011;7491;57.750;11.970;2022-07-24T06:40:35;3.20;;;1.40;;
14799;SDS011;7491;57.750;11.970;2022-07-24T06:43:03;3.67;;;1.40;;
14799;SDS011;7491;57.750;11.970;2022-07-24T06:45:29;5.80;;;1.80;;
14799;SDS011;7491;57.750;11.970;2022-07-24T06:47:59;2.95;;;1.40;;
14799;SDS011;7491;57.750;11.970;2022-07-24T06:50:25;5.93;;;1.63;;
14799;SDS011;7491;57.750;11.970;2022-07-24T06:52:52;5.55;;;1.58;;
14799;SDS011;7491;57.750;11.970;2022-07-24T06:55:19;4.28;;;1.40;;
14799;SDS011;7491;57.750;11.970;2022-07-24T06:57:46;3.38;;;1.38;;
14799;SDS011;7491;57.750;11.970;2022-07-24T07:00:13;4.93;;;1.60;;
14799;SDS011;7491;57.750;11.970;2022-07-24T07:02:39;3.17;;;1.45;;
14799;SDS011;7491;57.750;11.970;2022-07-24T07:05:08;3.70;;;1.38;;
14799;SDS011;7491;57.750;11.970;2022-07-24T07:07:35;5.93;;;1.65;;
14799;SDS011;7491;57.750;11.970;2022-07-24T07:10:03;3.30;;;1.70;;
14799;SDS011;7491;57.750;11.970;2022-07-24T07:12:30;3.10;;;1.25;;
14799;SDS011;7491;57.750;11.970;2022-07-24T07:14:57;2.60;;;1.55;;
14799;SDS011;7491;57.750;11.970;2022-07-24T07:17:24;6.50;;;1.63;;
14799;SDS011;7491;57.750;11.970;2022-07-24T07:19:51;7.13;;;1.77;;
14799;SDS011;7491;57.750;11.970;2022-07-24T07:22:19;5.47;;;1.90;;
14799;SDS011;7491;57.750;11.970;2022-07-24T07:24:46;3.60;;;1.42;;
14799;SDS011;7491;57.750;11.970;2022-07-24T07:27:12;4.32;;;1.77;;
14799;SDS011;7491;57.750;11.970;2022-07-24T07:29:39;2.65;;;1.40;;
14799;SDS011;7491;57.750;11.970;2022-07-24T07:32:06;6.70;;;1.63;;
14799;SDS011;7491;57.750;11.970;2022-07-24T07:34:32;3.30;;;1.30;;
14799;SDS011;7491;57.750;11.970;2022-07-24T07:36:59;4.88;;;1.60;;
14799;SDS011;7491;57.750;11.970;2022-07-24T07:39:27;2.67;;;1.30;;
14799;SDS011;7491;57.750;11.970;2022-07-24T07:41:54;2.40;;;1.40;;
14799;SDS011;7491;57.750;11.970;2022-07-24T07:44:20;3.30;;;1.50;;
14799;SDS011;7491;57.750;11.970;2022-07-24T07:46:47;2.05;;;1.20;;
14799;SDS011;7491;57.750;11.970;2022-07-24T07:49:14;3.85;;;1.63;;
14799;SDS011;7491;57.750;11.970;2022-07-24T07:51:40;2.85;;;1.33;;
14799;SDS011;7491;57.750;11.970;2022-07-24T07:54:07;4.05;;;1.30;;
14799;SDS011;7491;57.750;11.970;2022-07-24T07:56:35;5.78;;;1.35;;
14799;SDS011;7491;57.750;11.970;2022-07-24T07:59:02;3.17;;;1.58;;
14799;SDS011;7491;57.750;11.970;2022-07-24T08:01:28;3.72;;;2.00;;
14799;SDS011;7491;57.750;11.970;2022-07-24T08:03:55;4.63;;;1.60;;
14799;SDS011;7491;57.750;11.970;2022-07-24T08:06:21;4.43;;;1.60;;
14799;SDS011;7491;57.750;11.970;2022-07-24T08:08:48;3.25;;;1.40;;
14799;SDS011;7491;57.750;11.970;2022-07-24T08:11:15;3.05;;;1.50;;
14799;SDS011;7491;57.750;11.970;2022-07-24T08:13:43;3.58;;;1.70;;
14799;SDS011;7491;57.750;11.970;2022-07-24T08:16:09;1.92;;;1.45;;
14799;SDS011;7491;57.750;11.970;2022-07-24T08:18:36;5.00;;;1.70;;
14799;SDS011;7491;57.750;11.970;2022-07-24T08:21:03;4.28;;;1.63;;
14799;SDS011;7491;57.750;11.970;2022-07-24T08:23:30;2.50;;;1.58;;
14799;SDS011;7491;57.750;11.970;2022-07-24T08:25:56;4.13;;;1.60;;
14799;SDS011;7491;57.750;11.970;2022-07-24T08:28:23;2.35;;;1.48;;
14799;SDS011;7491;57.750;11.970;2022-07-24T08:30:51;3.83;;;1.42;;
14799;SDS011;7491;57.750;11.970;2022-07-24T08:33:17;1.90;;;1.30;;
14799;SDS011;7491;57.750;11.970;2022-07-24T08:35:44;2.97;;;1.40;;
14799;SDS011;7491;57.750;11.970;2022-07-24T08:38:11;2.28;;;1.50;;
14799;SDS011;7491;57.750;11.970;2022-07-24T08:40:38;3.40;;;1.42;;
14799;SDS011;7491;57.750;11.970;2022-07-24T08:43:06;1.67;;;1.23;;
14799;SDS011;7491;57.750;11.970;2022-07-24T08:45:35;3.22;;;1.42;;
14799;SDS011;7491;57.750;11.970;2022-07-24T08:48:04;3.95;;;1.80;;
14799;SDS011;7491;57.750;11.970;2022-07-24T08:50:33;4.03;;;1.40;;
14799;SDS011;7491;57.750;11.970;2022-07-24T08:53:02;4.15;;;1.70;;
14799;SDS011;7491;57.750;11.970;2022-07-24T08:55:29;3.83;;;1.35;;
14799;SDS011;7491;57.750;11.970;2022-07-24T08:57:56;2.08;;;1.60;;
14799;SDS011;7491;57.750;11.970;2022-07-24T09:00:23;4.82;;;1.67;;
14799;SDS011;7491;57.750;11.970;2022-07-24T09:02:50;2.72;;;1.67;;
14799;SDS011;7491;57.750;11.970;2022-07-24T09:05:18;3.75;;;1.70;;
14799;SDS011;7491;57.750;11.970;2022-07-24T09:07:45;3.97;;;1.73;;
14799;SDS011;7491;57.750;11.970;2022-07-24T09:10:14;3.20;;;1.58;;
14799;SDS011;7491;57.750;11.970;2022-07-24T09:12:43;4.60;;;1.42;;
14799;SDS011;7491;57.750;11.970;2022-07-24T09:15:12;3.08;;;1.58;;
14799;SDS011;7491;57.750;11.970;2022-07-24T09:17:49;3.45;;;1.58;;
14799;SDS011;7491;57.750;11.970;2022-07-24T09:20:18;2.08;;;1.63;;
14799;SDS011;7491;57.750;11.970;2022-07-24T09:22:45;2.25;;;1.60;;
14799;SDS011;7491;57.750;11.970;2022-07-24T09:25:13;4.38;;;1.50;;
14799;SDS011;7491;57.750;11.970;2022-07-24T09:27:44;4.38;;;1.70;;
14799;SDS011;7491;57.750;11.970;2022-07-24T09:30:26;2.50;;;1.30;;
14799;SDS011;7491;57.750;11.970;2022-07-24T09:32:57;1.63;;;1.50;;
14799;SDS011;7491;57.750;11.970;2022-07-24T09:35:33;2.92;;;1.40;;
14799;SDS011;7491;57.750;11.970;2022-07-24T09:38:05;4.80;;;1.75;;
14799;SDS011;7491;57.750;11.970;2022-07-24T09:40:32;2.28;;;1.63;;
14799;SDS011;7491;57.750;11.970;2022-07-24T09:43:11;3.03;;;1.65;;
14799;SDS011;7491;57.750;11.970;2022-07-24T09:45:53;3.30;;;1.40;;
14799;SDS011;7491;57.750;11.970;2022-07-24T09:48:25;4.65;;;1.10;;
14799;SDS011;7491;57.750;11.970;2022-07-24T09:50:56;4.22;;;1.35;;
14799;SDS011;7491;57.750;11.970;2022-07-24T09:53:24;4.63;;;1.30;;
14799;SDS011;7491;57.750;11.970;2022-07-24T09:55:56;3.08;;;1.33;;
14799;SDS011;7491;57.750;11.970;2022-07-24T09:58:24;2.92;;;2.58;;
14799;SDS011;7491;57.750;11.970;2022-07-24T10:00:52;3.65;;;1.50;;
14799;SDS011;7491;57.750;11.970;2022-07-24T10:03:20;3.10;;;1.48;;
14799;SDS011;7491;57.750;11.970;2022-07-24T10:05:53;3.05;;;1.40;;
14799;SDS011;7491;57.750;11.970;2022-07-24T10:08:22;4.63;;;1.65;;
14799;SDS011;7491;57.750;11.970;2022-07-24T10:10:50;2.85;;;1.30;;
14799;SDS011;7491;57.750;11.970;2022-07-24T10:13:17;2.03;;;1.00;;
14799;SDS011;7491;57.750;11.970;2022-07-24T10:15:49;2.95;;;1.13;;
14799;SDS011;7491;57.750;11.970;2022-07-24T10:18:18;2.05;;;1.08;;
14799;SDS011;7491;57.750;11.970;2022-07-24T10:20:49;1.30;;;1.20;;
14799;SDS011;7491;57.750;11.970;2022-07-24T10:23:33;2.80;;;1.20;;
14799;SDS011;7491;57.750;11.970;2022-07-24T10:26:09;3.58;;;1.40;;
14799;SDS011;7491;57.750;11.970;2022-07-24T10:28:43;3.20;;;1.40;;
14799;SDS011;7491;57.750;11.970;2022-07-24T10:31:11;2.78;;;1.20;;
14799;SDS011;7491;57.750;11.970;2022-07-24T10:33:39;3.28;;;1.27;;
14799;SDS011;7491;57.750;11.970;2022-07-24T10:36:17;4.45;;;1.45;;
14799;SDS011;7491;57.750;11.970;2022-07-24T10:38:51;3.30;;;1.48;;
14799;SDS011;7491;57.750;11.970;2022-07-24T10:41:23;2.38;;;1.50;;
14799;SDS011;7491;57.750;11.970;2022-07-24T10:46:59;2.63;;;1.27;;
14799;SDS011;7491;57.750;11.970;2022-07-24T10:49:38;4.60;;;1.77;;
14799;SDS011;7491;57.750;11.970;2022-07-24T10:52:14;2.35;;;1.48;;
14799;SDS011;7491;57.750;11.970;2022-07-24T10:57:45;3.75;;;1.17;;
14799;SDS011;7491;57.750;11.970;2022-07-24T11:00:20;3.15;;;1.40;;
14799;SDS011;7491;57.750;11.970;2022-07-24T11:02:54;3.53;;;1.30;;
14799;SDS011;7491;57.750;11.970;2022-07-24T11:05:22;3.60;;;1.13;;
14799;SDS011;7491;57.750;11.970;2022-07-24T11:10:56;1.58;;;1.20;;
14799;SDS011;7491;57.750;11.970;2022-07-24T11:13:44;3.97;;;1.52;;
14799;SDS011;7491;57.750;11.970;2022-07-24T11:16:26;2.20;;;1.40;;
14799;SDS011;7491;57.750;11.970;2022-07-24T11:22:10;4.30;;;1.00;;
14799;SDS011;7491;57.750;11.970;2022-07-24T11:24:45;3.15;;;1.60;;
14799;SDS011;7491;57.750;11.970;2022-07-24T11:27:53;2.17;;;1.30;;
14799;SDS011;7491;57.750;11.970;2022-07-24T11:30:22;2.65;;;1.45;;
14799;SDS011;7491;57.750;11.970;2022-07-24T11:32:50;3.38;;;1.40;;
14799;SDS011;7491;57.750;11.970;2022-07-24T11:35:17;4.53;;;1.60;;
14799;SDS011;7491;57.750;11.970;2022-07-24T11:37:52;3.00;;;1.40;;
14799;SDS011;7491;57.750;11.970;2022-07-24T11:40:21;3.65;;;1.50;;
14799;SDS011;7491;57.750;11.970;2022-07-24T11:42:53;1.77;;;1.30;;
14799;SDS011;7491;57.750;11.970;2022-07-24T11:45:21;3.75;;;1.65;;
14799;SDS011;7491;57.750;11.970;2022-07-24T11:47:47;2.55;;;1.50;;
14799;SDS011;7491;57.750;11.970;2022-07-24T11:50:14;2.78;;;1.20;;
14799;SDS011;7491;57.750;11.970;2022-07-24T11:52:41;2.30;;;1.80;;
14799;SDS011;7491;57.750;11.970;2022-07-24T11:55:09;5.57;;;1.60;;
14799;SDS011;7491;57.750;11.970;2022-07-24T11:57:39;3.90;;;1.42;;
14799;SDS011;7491;57.750;11.970;2022-07-24T12:00:08;2.88;;;1.50;;
14799;SDS011;7491;57.750;11.970;2022-07-24T12:02:37;2.90;;;1.50;;
14799;SDS011;7491;57.750;11.970;2022-07-24T12:05:09;1.33;;;1.10;;
14799;SDS011;7491;57.750;11.970;2022-07-24T12:07:36;2.75;;;1.73;;
14799;SDS011;7491;57.750;11.970;2022-07-24T12:10:03;4.00;;;1.48;;
14799;SDS011;7491;57.750;11.970;2022-07-24T12:12:31;2.03;;;1.48;;
14799;SDS011;7491;57.750;11.970;2022-07-24T12:15:02;2.25;;;1.25;;
14799;SDS011;7491;57.750;11.970;2022-07-24T12:17:32;3.00;;;1.38;;
14799;SDS011;7491;57.750;11.970;2022-07-24T12:20:00;2.80;;;1.30;;
14799;SDS011;7491;57.750;11.970;2022-07-24T12:22:30;5.53;;;1.63;;
14799;SDS011;7491;57.750;11.970;2022-07-24T12:24:58;2.85;;;1.58;;
14799;SDS011;7491;57.750;11.970;2022-07-24T12:27:31;2.65;;;1.52;;
14799;SDS011;7491;57.750;11.970;2022-07-24T12:30:15;2.30;;;1.65;;
14799;SDS011;7491;57.750;11.970;2022-07-24T12:32:57;3.47;;;1.80;;
14799;SDS011;7491;57.750;11.970;2022-07-24T12:35:25;3.75;;;2.08;;
14799;SDS011;7491;57.750;11.970;2022-07-24T12:37:53;2.30;;;1.70;;
14799;SDS011;7491;57.750;11.970;2022-07-24T12:40:24;3.40;;;1.92;;
14799;SDS011;7491;57.750;11.970;2022-07-24T12:42:56;2.95;;;1.63;;
14799;SDS011;7491;57.750;11.970;2022-07-24T12:45:28;1.58;;;1.48;;
14799;SDS011;7491;57.750;11.970;2022-07-24T12:48:05;3.13;;;1.90;;
14799;SDS011;7491;57.750;11.970;2022-07-24T12:50:33;2.17;;;1.75;;
14799;SDS011;7491;57.750;11.970;2022-07-24T12:53:01;4.57;;;1.48;;
14799;SDS011;7491;57.750;11.970;2022-07-24T12:55:29;2.30;;;1.70;;
14799;SDS011;7491;57.750;11.970;2022-07-24T12:57:56;3.38;;;1.58;;
14799;SDS011;7491;57.750;11.970;2022-07-24T13:00:25;4.00;;;1.45;;
14799;SDS011;7491;57.750;11.970;2022-07-24T13:02:53;2.72;;;1.55;;
14799;SDS011;7491;57.750;11.970;2022-07-24T13:08:05;4.28;;;1.50;;
14799;SDS011;7491;57.750;11.970;2022-07-24T13:10:32;2.08;;;1.40;;
14799;SDS011;7491;57.750;11.970;2022-07-24T13:12:59;4.78;;;1.42;;
14799;SDS011;7491;57.750;11.970;2022-07-24T13:15:25;2.35;;;1.70;;
14799;SDS011;7491;57.750;11.970;2022-07-24T13:17:53;2.67;;;1.80;;
14799;SDS011;7491;57.750;11.970;2022-07-24T13:20:20;1.73;;;1.63;;
14799;SDS011;7491;57.750;11.970;2022-07-24T13:22:46;4.63;;;1.65;;
14799;SDS011;7491;57.750;11.970;2022-07-24T13:25:13;2.90;;;1.88;;
14799;SDS011;7491;57.750;11.970;2022-07-24T13:27:40;3.78;;;2.45;;
14799;SDS011;7491;57.750;11.970;2022-07-24T13:30:07;3.78;;;1.80;;
14799;SDS011;7491;57.750;11.970;2022-07-24T13:32:34;3.63;;;1.77;;
14799;SDS011;7491;57.750;11.970;2022-07-24T13:35:02;3.58;;;1.58;;
14799;SDS011;7491;57.750;11.970;2022-07-24T13:37:29;3.15;;;1.73;;
14799;SDS011;7491;57.750;11.970;2022-07-24T13:39:56;2.85;;;1.90;;
14799;SDS011;7491;57.750;11.970;2022-07-24T13:42:23;2.42;;;1.67;;
14799;SDS011;7491;57.750;11.970;2022-07-24T13:44:50;4.68;;;1.85;;
14799;SDS011;7491;57.750;11.970;2022-07-24T13:47:16;3.90;;;2.00;;
14799;SDS011;7491;57.750;11.970;2022-07-24T13:49:43;3.95;;;2.13;;
14799;SDS011;7491;57.750;11.970;2022-07-24T13:52:11;4.68;;;1.90;;
14799;SDS011;7491;57.750;11.970;2022-07-24T13:54:38;7.53;;;2.13;;
14799;SDS011;7491;57.750;11.970;2022-07-24T13:57:04;3.88;;;2.10;;
14799;SDS011;7491;57.750;11.970;2022-07-24T13:59:31;4.35;;;2.40;;
14799;SDS011;7491;57.750;11.970;2022-07-24T14:01:58;2.33;;;2.13;;
14799;SDS011;7491;57.750;11.970;2022-07-24T14:04:25;4.10;;;2.03;;
14799;SDS011;7491;57.750;11.970;2022-07-24T14:06:52;3.65;;;1.67;;
14799;SDS011;7491;57.750;11.970;2022-07-24T14:09:20;4.70;;;2.20;;
14799;SDS011;7491;57.750;11.970;2022-07-24T14:11:47;5.55;;;2.38;;
14799;SDS011;7491;57.750;11.970;2022-07-24T14:14:13;4.68;;;2.38;;
14799;SDS011;7491;57.750;11.970;2022-07-24T14:16:40;5.47;;;2.30;;
14799;SDS011;7491;57.750;11.970;2022-07-24T14:19:06;5.35;;;2.22;;
14799;SDS011;7491;57.750;11.970;2022-07-24T14:21:33;5.72;;;2.30;;
14799;SDS011;7491;57.750;11.970;2022-07-24T14:24:00;3.90;;;2.25;;
14799;SDS011;7491;57.750;11.970;2022-07-24T14:26:27;3.47;;;2.33;;
14799;SDS011;7491;57.750;11.970;2022-07-24T14:28:54;6.03;;;2.05;;
14799;SDS011;7491;57.750;11.970;2022-07-24T14:31:21;5.30;;;2.40;;
14799;SDS011;7491;57.750;11.970;2022-07-24T14:33:47;4.35;;;2.38;;
14799;SDS011;7491;57.750;11.970;2022-07-24T14:36:14;3.08;;;2.05;;
14799;SDS011;7491;57.750;11.970;2022-07-24T14:38:41;3.90;;;2.38;;
14799;SDS011;7491;57.750;11.970;2022-07-24T14:41:07;4.15;;;2.22;;
14799;SDS011;7491;57.750;11.970;2022-07-24T14:43:35;5.45;;;2.45;;
14799;SDS011;7491;57.750;11.970;2022-07-24T14:46:02;4.10;;;2.35;;
14799;SDS011;7491;57.750;11.970;2022-07-24T14:48:28;5.82;;;2.10;;
14799;SDS011;7491;57.750;11.970;2022-07-24T14:50:55;5.32;;;1.83;;
14799;SDS011;7491;57.750;11.970;2022-07-24T14:53:21;6.32;;;2.05;;
14799;SDS011;7491;57.750;11.970;2022-07-24T14:55:48;6.45;;;2.00;;
14799;SDS011;7491;57.750;11.970;2022-07-24T14:58:15;8.93;;;1.95;;
14799;SDS011;7491;57.750;11.970;2022-07-24T15:00:43;3.90;;;2.10;;
14799;SDS011;7491;57.750;11.970;2022-07-24T15:03:09;4.03;;;2.08;;
14799;SDS011;7491;57.750;11.970;2022-07-24T15:05:36;3.83;;;2.15;;
14799;SDS011;7491;57.750;11.970;2022-07-24T15:08:02;3.50;;;1.90;;